Gold Bar, Washington
Current Conditions -  °F | °C
As of 6:53 AM on Wednesday 22 Oct 2014 (Local Time) from KPAE Reporting Station
Light Rain Light Rain  
Wind Chill: 53°   Ceiling: 500
Heat Index: 53°   Visibility: 3mi
Dew Point: 52°   Wind: 6mph
Humidity: 96%   Direction: 180°S
Pressure: 29.69"   Gusts: NA
Location:  47.86°N, 121.7°W
Report Text: KPAE 221353Z 18005KT 3SM -RA BR BKN005 OVC010 12/11 A2969 RMK AO2 CIG 002V008 SLP054 P0011 T01170111
Loading
Personal Weather Stations






























Interactive Weather Map
Tropical Storm Tracking
New forecast layout! Learn more

10-Day Weather Forecast

Advertisements
Track Severe Weather on mobile